Time;durP1;ratioP1;P1;durP2;ratioP2;P2;SDS_P1;SDS_P2;PMS_P1;PMS_P2;Temp;Humidity;BMP_temperature;BMP_pressure;BME280_temperature;BME280_humidity;BME280_pressure;Samples;Min_cycle;Max_cycle;Signal;HPM_P1;HPM_P2
2021/06/02 00:02:01;;;;;;;5.90;3.35;;;18.70;60.10;;;;;;4708528;30;20397;-87
2021/06/02 00:04:32;;;;;;;6.25;2.38;;;18.60;60.70;;;;;;4717753;30;20564;-90
2021/06/02 00:07:05;;;;;;;4.35;2.25;;;18.50;60.90;;;;;;4719741;30;20055;-89
2021/06/02 00:09:33;;;;;;;6.20;3.08;;;18.40;61.00;;;;;;4720873;30;20053;-89
2021/06/02 00:12:06;;;;;;;4.40;2.78;;;18.30;61.30;;;;;;4717515;30;20428;-89
2021/06/02 00:14:33;;;;;;;4.13;2.72;;;18.30;62.00;;;;;;4737488;30;20054;-89
2021/06/02 00:17:01;;;;;;;4.75;3.25;;;18.20;62.30;;;;;;4714507;30;20059;-90
2021/06/02 00:19:28;;;;;;;3.88;2.10;;;18.10;62.80;;;;;;4714881;30;20032;-88
2021/06/02 00:21:56;;;;;;;6.10;2.80;;;18.00;62.90;;;;;;4716972;30;20067;-88
2021/06/02 00:24:23;;;;;;;3.50;2.10;;;17.90;63.10;;;;;;4713636;30;20528;-89
2021/06/02 00:26:55;;;;;;;5.60;2.38;;;17.90;63.10;;;;;;4708185;30;20519;-90
2021/06/02 00:29:35;;;;;;;;;;;17.80;63.40;;;;;;4731104;30;20052;-91
2021/06/02 00:32:06;;;;;;;5.85;2.88;;;17.70;63.60;;;;;;4725460;30;19925;-91
2021/06/02 00:34:33;;;;;;;8.63;4.30;;;17.70;64.50;;;;;;4731058;30;20047;-91
2021/06/02 00:37:03;;;;;;;7.30;3.38;;;17.60;65.50;;;;;;4716489;30;20133;-91
2021/06/02 00:39:30;;;;;;;3.78;3.17;;;17.50;66.10;;;;;;4726606;30;20040;-91
2021/06/02 00:41:57;;;;;;;5.10;3.72;;;17.50;66.20;;;;;;4709220;30;20044;-91
2021/06/02 00:44:24;;;;;;;5.68;3.55;;;17.50;66.40;;;;;;4723264;30;20048;-91
2021/06/02 00:46:52;;;;;;;6.80;3.05;;;17.40;67.10;;;;;;4709861;30;20059;-91
2021/06/02 00:49:24;;;;;;;5.40;3.67;;;17.40;67.60;;;;;;4711916;30;20067;-91
2021/06/02 00:51:51;;;;;;;;;;;17.40;68.20;;;;;;4716872;30;20074;-83
2021/06/02 00:54:19;;;;;;;5.28;2.85;;;17.30;68.00;;;;;;4722570;30;20318;-84
2021/06/02 00:56:50;;;;;;;5.25;3.67;;;17.30;68.40;;;;;;4728416;30;20044;-83
2021/06/02 00:59:19;;;;;;;7.65;4.10;;;17.30;69.00;;;;;;4722221;30;20051;-84
2021/06/02 01:01:47;;;;;;;6.32;3.85;;;17.30;69.50;;;;;;4716201;30;20941;-84
2021/06/02 01:04:15;;;;;;;5.22;3.35;;;17.20;69.60;;;;;;4715149;30;20071;-83
2021/06/02 01:06:45;;;;;;;5.53;3.78;;;17.20;69.60;;;;;;4718536;30;20056;-84
2021/06/02 01:09:12;;;;;;;6.60;3.65;;;17.20;69.90;;;;;;4719349;30;20048;-84
2021/06/02 01:11:41;;;;;;;9.45;4.93;;;17.10;70.40;;;;;;4727440;30;20060;-83
2021/06/02 01:14:08;;;;;;;7.93;4.70;;;17.10;71.40;;;;;;4744276;30;20056;-83
2021/06/02 01:16:35;;;;;;;5.30;4.22;;;17.10;72.20;;;;;;4702853;30;20044;-84
2021/06/02 01:19:03;;;;;;;8.80;6.15;;;17.00;72.50;;;;;;4742614;30;20052;-84
2021/06/02 01:21:31;;;;;;;8.13;5.78;;;17.10;73.30;;;;;;4706486;30;20048;-83
2021/06/02 01:24:00;;;;;;;7.30;5.47;;;17.00;73.90;;;;;;4740209;30;20063;-83
2021/06/02 01:26:30;;;;;;;7.35;5.13;;;17.00;74.40;;;;;;4720882;30;20063;-83
2021/06/02 01:28:57;;;;;;;7.15;6.30;;;17.10;74.70;;;;;;4730069;30;20044;-83
2021/06/02 01:31:51;;;;;;;9.93;6.18;;;17.10;74.90;;;;;;4715825;30;20044;-83
2021/06/02 01:34:51;;;;;;;11.52;7.00;;;17.10;75.40;;;;;;4718211;30;20416;-82
2021/06/02 01:37:38;;;;;;;11.18;5.57;;;17.10;76.50;;;;;;4720587;30;20056;-83
2021/06/02 01:40:23;;;;;;;8.95;6.40;;;17.10;77.10;;;;;;4706481;30;20048;-83
2021/06/02 01:43:15;;;;;;;9.73;5.60;;;17.10;77.90;;;;;;4733317;30;20047;-83
2021/06/02 01:45:44;;;;;;;6.55;5.40;;;17.10;78.60;;;;;;4730878;30;20505;-83
2021/06/02 01:48:27;;;;;;;7.60;5.65;;;17.10;78.80;;;;;;4728912;30;20063;-82
2021/06/02 01:51:31;;;;;;;7.88;5.78;;;17.10;79.00;;;;;;4718567;30;20071;-83
2021/06/02 01:54:32;;;;;;;10.00;6.28;;;17.10;80.10;;;;;;4706945;30;20052;-82
2021/06/02 01:56:59;;;;;;;6.85;5.38;;;17.20;80.10;;;;;;4730730;30;20048;-82
2021/06/02 02:00:03;;;;;;;6.78;5.78;;;17.20;80.20;;;;;;4723470;30;20465;-83
2021/06/02 02:03:00;;;;;;;6.85;5.55;;;17.30;80.30;;;;;;4734026;30;20063;-82
2021/06/02 02:05:39;;;;;;;8.15;5.22;;;17.30;80.50;;;;;;4743915;30;20075;-82
2021/06/02 02:08:20;;;;;;;8.52;4.90;;;17.30;80.70;;;;;;4724716;30;20582;-82
2021/06/02 02:10:58;;;;;;;8.00;5.53;;;17.30;80.60;;;;;;4732957;30;20055;-82
2021/06/02 02:14:01;;;;;;;6.93;4.15;;;17.40;80.50;;;;;;4730418;30;20048;-90
2021/06/02 02:16:51;;;;;;;6.75;5.38;;;17.40;80.30;;;;;;4713366;30;20052;-82
2021/06/02 02:19:49;;;;;;;8.85;4.95;;;17.40;80.50;;;;;;4722363;30;20059;-82
2021/06/02 02:22:34;;;;;;;7.30;6.07;;;17.40;80.30;;;;;;4717886;30;20524;-83
2021/06/02 02:25:14;;;;;;;7.22;4.82;;;17.50;80.40;;;;;;4739989;30;20059;-82
2021/06/02 02:28:11;;;;;;;5.50;3.80;;;17.40;80.20;;;;;;4711511;30;20051;-83
2021/06/02 02:31:01;;;;;;;5.70;4.07;;;17.50;80.00;;;;;;4733408;30;20052;-89
2021/06/02 02:33:46;;;;;;;5.60;4.47;;;17.40;80.00;;;;;;4704388;30;20497;-88
2021/06/02 02:36:42;;;;;;;5.13;4.35;;;17.40;80.00;;;;;;4715310;30;20055;-86
2021/06/02 02:39:36;;;;;;;11.13;5.68;;;17.40;80.10;;;;;;4736370;30;20063;-90
2021/06/02 02:42:13;;;;;;;6.97;4.55;;;17.40;80.30;;;;;;4724896;30;20044;-92
2021/06/02 02:45:07;;;;;;;5.90;3.90;;;17.40;80.10;;;;;;4741823;30;20044;-90
2021/06/02 02:47:54;;;;;;;6.63;4.63;;;17.30;80.10;;;;;;4718821;30;20048;-89
2021/06/02 02:50:52;;;;;;;6.68;3.83;;;17.30;80.30;;;;;;4733946;30;20047;-89
2021/06/02 02:53:37;;;;;;;8.93;3.63;;;17.30;80.30;;;;;;4730364;30;20063;-89
2021/06/02 02:56:11;;;;;;;4.97;3.60;;;17.20;80.50;;;;;;4723806;30;20408;-89
2021/06/02 02:58:50;;;;;;;4.50;3.28;;;17.10;80.40;;;;;;4724462;30;20043;-88
2021/06/02 03:01:25;;;;;;;7.10;4.65;;;17.10;80.50;;;;;;4713270;30;20488;-88
2021/06/02 03:04:03;;;;;;;6.60;4.32;;;17.00;80.70;;;;;;4725412;30;20497;-89
2021/06/02 03:06:38;;;;;;;5.22;3.95;;;17.00;80.90;;;;;;4725789;30;20051;-89
2021/06/02 03:09:04;;;;;;;5.75;4.22;;;17.00;81.00;;;;;;4719257;30;20044;-89
2021/06/02 03:11:38;;;;;;;6.45;4.78;;;16.90;80.90;;;;;;4706593;30;20051;-88
2021/06/02 03:14:31;;;;;;;7.25;4.78;;;16.90;81.20;;;;;;4711012;30;20410;-88
2021/06/02 03:17:02;;;;;;;5.90;4.10;;;16.90;81.30;;;;;;4719800;30;20052;-89
2021/06/02 03:19:55;;;;;;;7.50;4.97;;;16.90;81.30;;;;;;4718667;30;20044;-88
2021/06/02 03:22:39;;;;;;;5.15;4.03;;;16.90;81.80;;;;;;4716506;30;20036;-88
2021/06/02 03:25:24;;;;;;;6.53;4.57;;;16.90;81.80;;;;;;4723286;30;20048;-87
2021/06/02 03:27:56;;;;;;;7.05;5.40;;;16.90;82.10;;;;;;4728295;30;20575;-87
2021/06/02 03:30:33;;;;;;;8.05;5.05;;;16.80;82.20;;;;;;4704546;30;20169;-89
2021/06/02 03:33:38;;;;;;;7.93;5.28;;;16.80;82.70;;;;;;4701923;30;20516;-88
2021/06/02 03:36:20;;;;;;;6.28;4.80;;;16.80;83.10;;;;;;4726965;30;20063;-87
2021/06/02 03:39:08;;;;;;;5.75;4.65;;;16.80;83.00;;;;;;4731458;30;20041;-88
2021/06/02 03:41:43;;;;;;;6.13;4.97;;;16.70;83.30;;;;;;4717397;30;20035;-88
2021/06/02 03:44:21;;;;;;;6.40;4.50;;;16.70;83.30;;;;;;4705225;30;20055;-87
2021/06/02 03:47:22;;;;;;;5.93;4.65;;;16.70;83.20;;;;;;4738744;30;20059;-88
2021/06/02 03:50:08;;;;;;;5.40;4.10;;;16.70;83.20;;;;;;4741259;30;20044;-88
2021/06/02 03:53:12;;;;;;;6.38;4.53;;;16.60;83.50;;;;;;4728427;30;20036;-87
2021/06/02 03:56:02;;;;;;;8.10;5.50;;;16.60;83.70;;;;;;4716835;30;20414;-89
2021/06/02 03:58:49;;;;;;;7.20;5.68;;;16.60;84.50;;;;;;4722005;30;20040;-88
2021/06/02 04:01:46;;;;;;;8.02;5.65;;;16.60;84.70;;;;;;4741183;30;20059;-88
2021/06/02 04:04:15;;;;;;;6.78;5.00;;;16.50;84.90;;;;;;4730334;30;20056;-88
2021/06/02 04:07:03;;;;;;;6.43;5.20;;;16.50;85.10;;;;;;4711641;30;20044;-88
2021/06/02 04:09:39;;;;;;;12.60;7.65;;;16.50;85.50;;;;;;4718859;30;20047;-83
2021/06/02 04:12:21;;;;;;;10.05;7.45;;;16.50;86.80;;;;;;4744118;30;20051;-83
2021/06/02 04:14:58;;;;;;;9.30;6.43;;;16.50;87.30;;;;;;4716199;30;20044;-82
2021/06/02 04:17:26;;;;;;;7.28;5.15;;;16.50;87.10;;;;;;4722680;30;20513;-83
2021/06/02 04:19:54;;;;;;;9.25;7.63;;;16.50;86.80;;;;;;4720829;30;20417;-82
2021/06/02 04:22:24;;;;;;;11.52;7.15;;;16.60;87.20;;;;;;4709990;30;20048;-83
2021/06/02 04:24:51;;;;;;;9.30;7.57;;;16.70;87.50;;;;;;4730406;30;20048;-83
2021/06/02 04:27:19;;;;;;;11.07;7.22;;;16.80;87.50;;;;;;4726631;30;20048;-81
2021/06/02 04:29:49;;;;;;;11.27;7.03;;;16.90;87.40;;;;;;4722338;30;20055;-82
2021/06/02 04:32:18;;;;;;;9.20;5.97;;;16.90;87.30;;;;;;4729390;30;20036;-78
2021/06/02 04:34:45;;;;;;;8.82;7.07;;;17.00;87.00;;;;;;4743435;30;20412;-77
2021/06/02 04:37:12;;;;;;;10.27;6.57;;;17.10;86.80;;;;;;4728779;30;20037;-79
2021/06/02 04:39:41;;;;;;;7.50;6.07;;;17.20;86.60;;;;;;4729102;30;20053;-77
2021/06/02 04:42:10;;;;;;;9.68;7.53;;;17.30;86.30;;;;;;4728971;30;20036;-77
2021/06/02 04:44:38;;;;;;;8.55;7.43;;;17.40;86.00;;;;;;4728903;30;20051;-77
2021/06/02 04:47:06;;;;;;;7.90;6.22;;;17.50;85.60;;;;;;4718789;30;20032;-80
2021/06/02 04:49:54;;;;;;;8.25;6.65;;;17.60;85.20;;;;;;4720350;30;20044;-79
2021/06/02 04:52:33;;;;;;;7.15;5.88;;;17.70;84.80;;;;;;4717859;30;20040;-79
2021/06/02 04:55:13;;;;;;;14.65;6.20;;;17.80;84.40;;;;;;4730130;30;20056;-79
2021/06/02 04:57:54;;;;;;;8.65;5.90;;;17.80;83.90;;;;;;4730031;30;20416;-79
2021/06/02 05:00:21;;;;;;;7.80;5.90;;;18.00;83.40;;;;;;4745240;30;20067;-79
2021/06/02 05:03:08;;;;;;;7.88;6.65;;;18.10;82.90;;;;;;4721452;30;20048;-79
2021/06/02 05:06:02;;;;;;;6.55;4.97;;;18.20;82.40;;;;;;4722140;30;20055;-80
2021/06/02 05:08:53;;;;;;;6.28;5.40;;;18.30;81.90;;;;;;4742910;30;20056;-79
2021/06/02 05:11:50;;;;;;;6.80;5.30;;;18.50;81.60;;;;;;4705504;30;20048;-79
2021/06/02 05:14:31;;;;;;;9.02;5.40;;;18.60;81.10;;;;;;4743147;30;20052;-79
2021/06/02 05:17:22;;;;;;;6.70;5.43;;;18.70;80.50;;;;;;4724758;30;20492;-79
2021/06/02 05:20:19;;;;;;;8.13;5.60;;;18.80;79.90;;;;;;4735122;30;20048;-79
2021/06/02 05:23:23;;;;;;;7.70;6.00;;;19.00;79.60;;;;;;4726007;30;20434;-80
2021/06/02 05:25:52;;;;;;;6.72;5.50;;;19.10;79.00;;;;;;4740557;30;20062;-79
2021/06/02 05:28:37;;;;;;;6.80;5.00;;;19.30;78.50;;;;;;4729717;30;20047;-77
2021/06/02 05:31:18;;;;;;;8.10;5.57;;;19.40;78.10;;;;;;4729721;30;20075;-80
2021/06/02 05:34:00;;;;;;;6.15;4.35;;;19.50;77.70;;;;;;4733318;30;20060;-81
2021/06/02 05:36:46;;;;;;;5.03;4.28;;;19.70;77.90;;;;;;4710388;30;20487;-81
2021/06/02 05:39:37;;;;;;;6.60;5.07;;;19.80;77.00;;;;;;4718698;30;20061;-81
2021/06/02 05:42:09;;;;;;;6.35;5.00;;;19.90;76.20;;;;;;4741555;30;20052;-81
2021/06/02 05:44:50;;;;;;;5.35;4.05;;;20.00;75.70;;;;;;4733226;30;20048;-81
2021/06/02 05:47:38;;;;;;;4.23;3.77;;;20.10;75.50;;;;;;4739137;30;20048;-81
2021/06/02 05:50:42;;;;;;;5.38;4.78;;;20.30;75.20;;;;;;4723581;30;20497;-80
2021/06/02 05:53:40;;;;;;;5.85;5.13;;;20.50;74.40;;;;;;4720664;30;20044;-81
2021/06/02 05:56:44;;;;;;;8.40;6.10;;;20.70;74.10;;;;;;4731381;30;20678;-80
2021/06/02 05:59:49;;;;;;;6.53;4.97;;;20.80;73.40;;;;;;4731584;30;20048;-80
2021/06/02 06:02:40;;;;;;;7.45;5.57;;;20.90;72.70;;;;;;4747259;30;20052;-80
2021/06/02 06:05:25;;;;;;;6.00;5.45;;;21.10;71.80;;;;;;4727355;30;20040;-81
2021/06/02 06:08:13;;;;;;;6.75;5.35;;;21.20;71.20;;;;;;4709993;30;20607;-81
2021/06/02 06:11:17;;;;;;;6.93;6.22;;;21.40;71.30;;;;;;4740574;30;20044;-79
2021/06/02 06:14:04;;;;;;;6.63;4.95;;;21.60;70.30;;;;;;4725553;30;20386;-81
2021/06/02 06:16:43;;;;;;;5.88;4.43;;;21.90;69.80;;;;;;4746636;30;20056;-80
2021/06/02 06:19:35;;;;;;;6.50;5.53;;;22.20;68.70;;;;;;4732602;30;20048;-79
2021/06/02 06:22:23;;;;;;;6.07;5.10;;;22.60;67.90;;;;;;4738058;30;20050;-79
2021/06/02 06:25:11;;;;;;;8.07;5.03;;;22.80;66.90;;;;;;4719930;30;20055;-80
2021/06/02 06:27:47;;;;;;;8.43;6.78;;;22.90;66.20;;;;;;4733647;30;20067;-80
2021/06/02 06:30:33;;;;;;;9.70;6.78;;;22.90;65.40;;;;;;4732739;30;20052;-77
2021/06/02 06:33:07;;;;;;;6.93;4.95;;;22.80;65.30;;;;;;4745323;30;20484;-78
2021/06/02 06:35:38;;;;;;;7.80;6.38;;;22.70;65.80;;;;;;4713961;30;20044;-77
2021/06/02 06:38:12;;;;;;;7.35;6.10;;;22.70;65.80;;;;;;4745158;30;21410;-77
2021/06/02 06:40:39;;;;;;;7.43;6.00;;;22.80;66.30;;;;;;4722521;30;20036;-78
2021/06/02 06:43:12;;;;;;;9.25;5.35;;;22.90;65.80;;;;;;4746546;30;20040;-80
2021/06/02 06:45:39;;;;;;;;;;;23.00;65.20;;;;;;4722378;30;20067;-79
2021/06/02 06:48:21;;;;;;;7.72;6.07;;;23.00;64.90;;;;;;4746226;30;20367;-79
2021/06/02 06:50:57;;;;;;;5.35;4.85;;;23.00;64.40;;;;;;4747783;30;20056;-80
2021/06/02 06:53:25;;;;;;;5.95;5.10;;;23.00;64.90;;;;;;4721549;30;20405;-79
2021/06/02 06:55:53;;;;;;;7.00;5.45;;;23.10;64.70;;;;;;4730974;30;20501;-79
2021/06/02 06:58:21;;;;;;;8.70;6.20;;;23.20;64.60;;;;;;4735011;30;20802;-80
2021/06/02 07:00:48;;;;;;;6.20;5.57;;;23.30;64.20;;;;;;4747260;30;20059;-79
2021/06/02 07:03:15;;;;;;;7.93;6.20;;;23.40;63.60;;;;;;4731547;30;20477;-79
2021/06/02 07:05:44;;;;;;;8.23;6.55;;;23.40;63.20;;;;;;4724242;30;20067;-80
2021/06/02 07:08:11;;;;;;;5.60;5.10;;;23.40;62.50;;;;;;4731092;30;20056;-80
2021/06/02 07:10:38;;;;;;;6.85;5.28;;;23.40;62.60;;;;;;4731250;30;20062;-80
2021/06/02 07:13:10;;;;;;;10.35;4.38;;;23.50;62.70;;;;;;4731475;30;20413;-80
2021/06/02 07:15:37;;;;;;;7.80;5.05;;;23.70;62.70;;;;;;4720925;30;20058;-80
2021/06/02 07:18:04;;;;;;;8.48;5.50;;;23.90;61.40;;;;;;4716597;30;20056;-79
2021/06/02 07:20:32;;;;;;;6.70;5.22;;;23.90;60.80;;;;;;4731026;30;20040;-80
2021/06/02 07:23:00;;;;;;;6.07;5.20;;;24.00;60.50;;;;;;4719730;30;20048;-79
2021/06/02 07:25:28;;;;;;;6.70;5.40;;;24.00;60.40;;;;;;4723522;30;20055;-79
2021/06/02 07:27:57;;;;;;;6.95;5.43;;;24.10;60.40;;;;;;4732641;30;20052;-79
2021/06/02 07:30:26;;;;;;;8.05;5.10;;;24.10;59.80;;;;;;4730644;30;20048;-79
2021/06/02 07:32:54;;;;;;;5.20;4.65;;;24.20;60.00;;;;;;4722960;30;20056;-79
2021/06/02 07:35:20;;;;;;;5.53;4.22;;;24.40;59.90;;;;;;4743988;30;20040;-80
2021/06/02 07:37:47;;;;;;;4.93;4.43;;;24.60;59.50;;;;;;4701345;30;20065;-80
2021/06/02 07:40:14;;;;;;;4.95;4.45;;;24.70;59.30;;;;;;4735553;30;20504;-80
2021/06/02 07:42:41;;;;;;;9.27;6.05;;;24.90;59.00;;;;;;4732821;30;20132;-80
2021/06/02 07:45:08;;;;;;;6.40;5.80;;;25.00;58.60;;;;;;4716411;30;20057;-80
2021/06/02 07:47:35;;;;;;;9.20;6.75;;;25.00;58.30;;;;;;4729579;30;20055;-80
2021/06/02 07:50:02;;;;;;;5.15;4.68;;;25.00;57.80;;;;;;4717487;30;20163;-80
2021/06/02 07:52:28;;;;;;;4.95;4.50;;;25.10;57.90;;;;;;4729381;30;20409;-80
2021/06/02 07:54:55;;;;;;;5.68;4.55;;;25.30;58.10;;;;;;4708909;30;20044;-79
2021/06/02 07:57:22;;;;;;;6.07;4.82;;;25.50;57.90;;;;;;4718663;30;20060;-80
2021/06/02 07:59:48;;;;;;;8.40;4.72;;;25.60;56.60;;;;;;4732566;30;20056;-79
2021/06/02 08:02:15;;;;;;;7.07;5.65;;;25.60;55.60;;;;;;4708313;30;20490;-81
2021/06/02 08:04:42;;;;;;;5.85;5.13;;;25.50;55.80;;;;;;4721979;30;20051;-83
2021/06/02 08:07:10;;;;;;;7.22;5.35;;;25.50;56.10;;;;;;4705869;30;20048;-83
2021/06/02 08:09:37;;;;;;;5.55;4.78;;;25.60;56.00;;;;;;4736870;30;20060;-81
2021/06/02 08:12:06;;;;;;;6.72;5.53;;;25.70;55.00;;;;;;4714901;30;20054;-81
2021/06/02 08:14:33;;;;;;;5.85;4.72;;;25.70;54.20;;;;;;4722077;30;20040;-82
2021/06/02 08:17:06;;;;;;;5.40;3.90;;;25.70;54.00;;;;;;4728571;30;20148;-82
2021/06/02 08:19:33;;;;;;;5.05;4.50;;;25.70;54.10;;;;;;4715173;30;20059;-80
2021/06/02 08:22:00;;;;;;;5.75;5.07;;;25.80;54.30;;;;;;4721315;30;20040;-80
2021/06/02 08:24:27;;;;;;;6.20;5.22;;;26.00;54.40;;;;;;4728831;30;20063;-79
2021/06/02 08:26:53;;;;;;;5.35;4.68;;;26.20;53.80;;;;;;4725672;30;20044;-79
2021/06/02 08:29:20;;;;;;;5.70;5.18;;;26.20;53.60;;;;;;4712975;30;20040;-79
2021/06/02 08:31:47;;;;;;;6.28;5.07;;;26.30;52.90;;;;;;4727745;30;20079;-79
2021/06/02 08:34:13;;;;;;;7.50;5.47;;;26.30;53.30;;;;;;4714717;30;20051;-78
2021/06/02 08:36:40;;;;;;;5.30;4.80;;;26.40;53.80;;;;;;4688923;30;20436;-80
2021/06/02 08:39:07;;;;;;;5.10;4.35;;;26.50;53.60;;;;;;4702699;30;20052;-79
2021/06/02 08:41:38;;;;;;;4.95;3.60;;;26.60;53.50;;;;;;4715200;30;20048;-78
2021/06/02 08:44:04;;;;;;;4.55;4.15;;;26.70;52.80;;;;;;4735342;30;20409;-80
2021/06/02 08:46:31;;;;;;;8.40;5.13;;;26.90;52.40;;;;;;4714328;30;20070;-80
2021/06/02 08:48:58;;;;;;;6.03;5.38;;;27.10;52.00;;;;;;4733998;30;20067;-79
2021/06/02 08:51:25;;;;;;;4.10;3.55;;;27.10;51.90;;;;;;4729099;30;20531;-79
2021/06/02 08:53:51;;;;;;;5.00;3.08;;;27.10;49.60;;;;;;4728991;30;20063;-78
2021/06/02 08:56:19;;;;;;;7.50;4.18;;;27.10;48.40;;;;;;4727415;30;20044;-79
2021/06/02 08:58:46;;;;;;;7.03;4.45;;;27.10;48.60;;;;;;4729389;30;20040;-79
2021/06/02 09:01:14;;;;;;;5.63;4.55;;;27.30;49.70;;;;;;4704028;30;20052;-79
2021/06/02 09:03:41;;;;;;;4.43;3.95;;;27.40;47.90;;;;;;4715112;30;20048;-79
2021/06/02 09:06:10;;;;;;;6.55;4.28;;;27.30;48.00;;;;;;4727587;30;20068;-80
2021/06/02 09:08:40;;;;;;;6.13;3.30;;;27.40;48.10;;;;;;4742328;30;20048;-79
2021/06/02 09:11:17;;;;;;;3.80;3.42;;;27.50;48.40;;;;;;4744637;30;20050;-80
2021/06/02 09:13:45;;;;;;;6.68;4.80;;;27.70;47.80;;;;;;4743717;30;20048;-79
2021/06/02 09:16:20;;;;;;;4.93;3.38;;;27.70;46.80;;;;;;4741011;30;20040;-79
2021/06/02 09:18:58;;;;;;;6.78;3.55;;;27.70;46.00;;;;;;4743500;30;20057;-79
2021/06/02 09:21:27;;;;;;;3.45;2.75;;;27.80;46.60;;;;;;4730178;30;20047;-78
2021/06/02 09:23:54;;;;;;;4.20;2.85;;;27.90;46.50;;;;;;4743164;30;20409;-79
2021/06/02 09:26:23;;;;;;;7.72;2.78;;;28.00;46.20;;;;;;4743476;30;20036;-80
2021/06/02 09:28:50;;;;;;;6.93;3.53;;;28.20;46.60;;;;;;4731442;30;20044;-79
2021/06/02 09:31:26;;;;;;;6.30;3.70;;;28.40;46.50;;;;;;4745059;30;20536;-80
2021/06/02 09:33:55;;;;;;;5.65;3.80;;;28.60;45.90;;;;;;4731292;30;20056;-79
2021/06/02 09:36:28;;;;;;;4.38;2.88;;;28.60;45.40;;;;;;4715680;30;20055;-80
2021/06/02 09:38:58;;;;;;;6.53;3.85;;;28.60;45.60;;;;;;4728965;30;20044;-79
2021/06/02 09:41:37;;;;;;;5.60;3.53;;;28.70;44.80;;;;;;4744568;30;20044;-79
2021/06/02 09:44:23;;;;;;;3.58;2.45;;;28.80;44.20;;;;;;4744692;30;20048;-80
2021/06/02 09:47:07;;;;;;;6.30;3.92;;;28.90;45.30;;;;;;4725331;30;20051;-80
2021/06/02 09:49:56;;;;;;;4.07;3.33;;;28.90;44.30;;;;;;4743320;30;20153;-80
2021/06/02 09:52:41;;;;;;;4.50;2.72;;;29.00;44.40;;;;;;4743108;30;20115;-80
2021/06/02 09:55:22;;;;;;;5.03;3.45;;;29.00;44.30;;;;;;4744042;30;20040;-80
2021/06/02 09:58:15;;;;;;;5.90;4.38;;;29.10;44.90;;;;;;4734706;30;20040;-80
2021/06/02 10:00:53;;;;;;;5.97;3.80;;;29.30;44.60;;;;;;4731556;30;20055;-79
2021/06/02 10:03:21;;;;;;;5.03;3.10;;;29.40;44.70;;;;;;4745435;30;20492;-79
2021/06/02 10:05:53;;;;;;;4.90;3.17;;;29.50;44.30;;;;;;4729428;30;20044;-78
2021/06/02 10:08:25;;;;;;;;;;;29.50;43.80;;;;;;4745649;30;20059;-78
2021/06/02 10:10:53;;;;;;;4.22;2.65;;;29.60;43.30;;;;;;4733861;30;19922;-78
2021/06/02 10:13:22;;;;;;;4.55;2.33;;;29.70;42.50;;;;;;4745856;30;20056;-78
2021/06/02 10:15:49;;;;;;;3.58;1.58;;;29.70;42.50;;;;;;4729689;30;20044;-79
2021/06/02 10:18:26;;;;;;;3.00;2.38;;;29.80;42.40;;;;;;4745476;30;20067;-80
2021/06/02 10:21:03;;;;;;;3.88;1.90;;;29.90;41.40;;;;;;4747614;30;20429;-79
2021/06/02 10:23:33;;;;;;;5.05;3.03;;;29.80;41.00;;;;;;4731624;30;20045;-80
2021/06/02 10:26:00;;;;;;;3.10;2.40;;;29.80;41.10;;;;;;4745681;30;20048;-79
2021/06/02 10:28:30;;;;;;;2.78;1.88;;;29.90;41.10;;;;;;4730809;30;20051;-79
2021/06/02 10:30:57;;;;;;;3.60;1.50;;;30.10;41.20;;;;;;4748481;30;20040;-80
2021/06/02 10:33:24;;;;;;;6.05;3.47;;;30.30;41.00;;;;;;4728549;30;20060;-80
2021/06/02 10:35:50;;;;;;;4.95;3.17;;;30.60;40.70;;;;;;4715281;30;20047;-79
2021/06/02 10:38:17;;;;;;;3.13;1.45;;;30.80;39.90;;;;;;4731719;30;20071;-80
2021/06/02 10:40:45;;;;;;;3.88;2.03;;;30.90;39.20;;;;;;4745577;30;20048;-79
2021/06/02 10:43:17;;;;;;;3.22;1.63;;;31.00;38.70;;;;;;4747187;30;20493;-79
2021/06/02 10:45:56;;;;;;;1.83;1.20;;;31.10;38.60;;;;;;4729056;30;20063;-81
2021/06/02 10:48:45;;;;;;;2.25;1.48;;;31.30;38.80;;;;;;4747187;30;20933;-81
2021/06/02 10:51:29;;;;;;;1.98;1.33;;;31.70;38.80;;;;;;4739280;30;20055;-78
2021/06/02 10:54:13;;;;;;;4.45;1.50;;;32.10;38.60;;;;;;4745255;30;20040;-79
2021/06/02 10:57:00;;;;;;;2.75;2.03;;;32.50;38.00;;;;;;4728351;30;20055;-79
2021/06/02 10:59:30;;;;;;;2.90;1.40;;;32.70;37.20;;;;;;4729982;30;20906;-79
2021/06/02 11:02:03;;;;;;;1.92;1.05;;;32.80;37.40;;;;;;4731345;30;20396;-79
2021/06/02 11:04:30;;;;;;;2.90;1.50;;;33.10;36.90;;;;;;4744525;30;20052;-78
2021/06/02 11:07:17;;;;;;;2.15;1.27;;;33.30;36.00;;;;;;4726453;30;20055;-78
2021/06/02 11:10:01;;;;;;;4.20;1.60;;;33.60;35.90;;;;;;4743258;30;20056;-78
2021/06/02 11:12:47;;;;;;;4.70;1.42;;;33.90;35.40;;;;;;4743447;30;20125;-78
2021/06/02 11:15:26;;;;;;;3.47;1.30;;;34.10;34.50;;;;;;4727473;30;20052;-79
2021/06/02 11:18:11;;;;;;;3.65;1.02;;;34.10;34.30;;;;;;4744613;30;20052;-79
2021/06/02 11:20:58;;;;;;;3.40;1.13;;;34.30;34.40;;;;;;4730872;30;20051;-80
2021/06/02 11:23:34;;;;;;;4.75;1.80;;;34.50;33.70;;;;;;4712917;30;20063;-79
2021/06/02 11:26:22;;;;;;;3.10;2.60;;;34.80;33.00;;;;;;4734278;30;20048;-83
2021/06/02 11:28:49;;;;;;;4.80;1.38;;;35.00;33.00;;;;;;4735764;30;20048;-85
2021/06/02 11:31:27;;;;;;;2.42;1.30;;;35.20;32.70;;;;;;4734635;30;20500;-83
2021/06/02 11:34:29;;;;;;;2.45;0.90;;;35.40;33.20;;;;;;4731209;30;20044;-84
2021/06/02 11:37:07;;;;;;;2.70;0.88;;;35.80;32.60;;;;;;4716221;30;20059;-83
2021/06/02 11:39:36;;;;;;;3.40;0.95;;;36.30;32.60;;;;;;4736567;30;20040;-84
2021/06/02 11:42:05;;;;;;;1.52;0.73;;;36.70;31.30;;;;;;4745239;30;20052;-83
2021/06/02 11:44:34;;;;;;;3.78;0.80;;;36.80;30.60;;;;;;4747108;30;20071;-83
2021/06/02 11:47:01;;;;;;;2.33;1.10;;;37.00;30.50;;;;;;4729538;30;20060;-82
2021/06/02 11:49:36;;;;;;;3.17;0.90;;;37.30;30.70;;;;;;4746479;30;20067;-84
2021/06/02 11:52:14;;;;;;;1.60;0.88;;;37.70;30.30;;;;;;4739347;30;20044;-82
2021/06/02 11:55:09;;;;;;;2.40;0.82;;;37.90;29.20;;;;;;4732047;30;20052;-82
2021/06/02 11:57:49;;;;;;;2.03;0.80;;;38.10;28.90;;;;;;4718680;30;20047;-83
2021/06/02 12:00:21;;;;;;;2.30;0.90;;;38.20;28.60;;;;;;4738524;30;20044;-82
2021/06/02 12:02:58;;;;;;;1.70;0.80;;;38.40;28.80;;;;;;4743197;30;20644;-83
2021/06/02 12:05:32;;;;;;;1.52;0.75;;;38.60;28.70;;;;;;4728446;30;20036;-84
2021/06/02 12:08:09;;;;;;;4.43;0.85;;;38.50;28.10;;;;;;4747257;30;20056;-84
2021/06/02 12:10:38;;;;;;;1.70;0.70;;;38.60;28.30;;;;;;4745341;30;20496;-82
2021/06/02 12:13:19;;;;;;;2.65;0.73;;;38.90;28.50;;;;;;4721603;30;20056;-82
2021/06/02 12:16:04;;;;;;;1.95;0.70;;;39.20;27.60;;;;;;4729927;30;20044;-83
2021/06/02 12:18:39;;;;;;;1.35;0.70;;;39.40;27.20;;;;;;4746024;30;20055;-83
2021/06/02 12:21:27;;;;;;;4.13;1.15;;;39.40;27.00;;;;;;4729991;30;20389;-81
2021/06/02 12:23:55;;;;;;;1.77;1.02;;;39.60;26.70;;;;;;4745710;30;20051;-83
2021/06/02 12:26:37;;;;;;;3.33;2.70;;;39.40;26.50;;;;;;4745208;30;20052;-84
2021/06/02 12:29:06;;;;;;;1.20;0.65;;;39.50;26.20;;;;;;4738679;30;20048;-81
2021/06/02 12:31:34;;;;;;;1.80;0.75;;;39.50;26.40;;;;;;4743269;30;20040;-81
2021/06/02 12:34:14;;;;;;;1.83;0.80;;;39.60;26.60;;;;;;4745403;30;20040;-81
2021/06/02 12:36:48;;;;;;;1.92;1.25;;;39.90;26.60;;;;;;4743549;30;20047;-82
2021/06/02 12:39:19;;;;;;;1.73;0.93;;;40.30;26.40;;;;;;4727870;30;20067;-81
2021/06/02 12:41:49;;;;;;;4.60;1.40;;;40.50;25.90;;;;;;4726941;30;20039;-79
2021/06/02 12:44:21;;;;;;;2.72;0.90;;;40.60;25.70;;;;;;4728363;30;20408;-81
2021/06/02 12:47:01;;;;;;;3.08;0.80;;;40.50;25.50;;;;;;4742906;30;20056;-81
2021/06/02 12:49:29;;;;;;;2.75;0.90;;;40.40;25.60;;;;;;4743771;30;20445;-81
2021/06/02 12:51:57;;;;;;;2.83;0.70;;;40.50;25.90;;;;;;4743248;30;20059;-80
2021/06/02 12:54:28;;;;;;;2.67;0.90;;;40.60;26.00;;;;;;4729650;30;20504;-80
2021/06/02 12:56:55;;;;;;;2.42;1.00;;;41.00;26.30;;;;;;4727306;30;20063;-80
2021/06/02 12:59:34;;;;;;;1.80;0.90;;;41.40;26.10;;;;;;4741906;30;20052;-79
2021/06/02 13:02:10;;;;;;;1.70;0.80;;;41.70;25.70;;;;;;4733576;30;20032;-79
2021/06/02 13:04:37;;;;;;;1.95;1.00;;;41.70;25.30;;;;;;4728267;30;20039;-80
2021/06/02 13:07:03;;;;;;;2.15;0.82;;;41.70;25.50;;;;;;4728511;30;20044;-78
2021/06/02 13:09:30;;;;;;;2.30;0.90;;;41.80;25.20;;;;;;4729793;30;20048;-78
2021/06/02 13:11:57;;;;;;;2.88;0.88;;;41.90;25.10;;;;;;4742985;30;20425;-80
2021/06/02 13:14:36;;;;;;;13.48;12.27;;;41.90;25.40;;;;;;4728426;30;20060;-81
2021/06/02 13:17:04;;;;;;;3.25;1.83;;;41.90;25.00;;;;;;4734694;30;20055;-80
2021/06/02 13:19:41;;;;;;;1.90;1.05;;;42.00;25.60;;;;;;4728060;30;20135;-80
2021/06/02 13:22:21;;;;;;;2.60;1.08;;;42.10;25.10;;;;;;4726024;30;20501;-81
2021/06/02 13:24:48;;;;;;;3.60;1.00;;;42.20;25.10;;;;;;4743171;30;20405;-79
2021/06/02 13:27:19;;;;;;;2.42;1.05;;;42.40;25.20;;;;;;4712136;30;20097;-78
2021/06/02 13:29:58;;;;;;;;;;;42.50;25.40;;;;;;4726124;30;20479;-79
2021/06/02 13:32:25;;;;;;;2.28;1.27;;;42.60;25.20;;;;;;4746314;30;19922;-78
2021/06/02 13:34:51;;;;;;;3.25;2.95;;;42.60;24.80;;;;;;4750098;30;20051;-78